Time;durP1;ratioP1;P1;durP2;ratioP2;P2;SDS_P1;SDS_P2;PMS_P1;PMS_P2;Temp;Humidity;BMP_temperature;BMP_pressure;BME280_temperature;BME280_humidity;BME280_pressure;Samples;Min_cycle;Max_cycle;Signal;HPM_P1;HPM_P2
2021/01/02 00:00:49;;;;;;;6.95;5.30;;;21.90;30.90;;;;;;4991821;28;20398;-69
2021/01/02 00:03:52;;;;;;;5.95;4.63;;;21.90;30.70;;;;;;4991618;28;20758;-69
2021/01/02 00:06:20;;;;;;;6.88;5.00;;;21.80;30.60;;;;;;4991495;28;20485;-69
2021/01/02 00:08:50;;;;;;;5.65;4.40;;;21.80;30.70;;;;;;4991639;28;21039;-69
2021/01/02 00:11:28;;;;;;;5.60;4.70;;;21.80;30.90;;;;;;4991713;28;20394;-69
2021/01/02 00:14:08;;;;;;;6.60;5.00;;;21.80;30.80;;;;;;4991791;28;20514;-69
2021/01/02 00:16:42;;;;;;;6.10;4.88;;;21.80;30.60;;;;;;4991100;28;21077;-69
2021/01/02 00:19:26;;;;;;;5.57;4.53;;;21.80;30.80;;;;;;4991836;28;20401;-69
2021/01/02 00:22:12;;;;;;;5.22;4.53;;;21.80;30.60;;;;;;4991636;28;20397;-68
2021/01/02 00:24:54;;;;;;;6.20;4.72;;;21.80;30.60;;;;;;4973649;28;20421;-69
2021/01/02 00:27:28;;;;;;;6.07;4.70;;;21.80;30.50;;;;;;4991453;28;20390;-69
2021/01/02 00:30:00;;;;;;;5.77;5.10;;;21.80;30.90;;;;;;4991268;28;20459;-69
2021/01/02 00:32:42;;;;;;;5.60;4.63;;;21.80;30.40;;;;;;4973643;28;20442;-68
2021/01/02 00:35:19;;;;;;;6.40;5.00;;;21.80;30.20;;;;;;4991191;28;20909;-68
2021/01/02 00:38:03;;;;;;;5.72;4.63;;;21.70;31.00;;;;;;4974759;28;20949;-68
2021/01/02 00:40:29;;;;;;;5.57;4.50;;;21.70;30.40;;;;;;4976900;28;20387;-68
2021/01/02 00:42:55;;;;;;;5.38;4.30;;;21.70;30.40;;;;;;4994745;28;20530;-69
2021/01/02 00:45:22;;;;;;;5.40;4.57;;;21.70;30.60;;;;;;4994625;28;20473;-68
2021/01/02 00:47:48;;;;;;;5.75;4.50;;;21.70;30.40;;;;;;4977280;28;20417;-68
2021/01/02 00:50:17;;;;;;;5.60;4.63;;;21.70;30.50;;;;;;4994593;28;20399;-68
2021/01/02 00:52:55;;;;;;;5.00;4.43;;;21.70;30.50;;;;;;4976985;28;20387;-68
2021/01/02 00:55:48;;;;;;;5.20;4.38;;;21.70;30.70;;;;;;4976932;28;20430;-69
2021/01/02 00:58:20;;;;;;;5.00;4.40;;;21.70;30.70;;;;;;5006389;28;20881;-69
2021/01/02 01:00:52;;;;;;;4.85;4.35;;;21.70;30.60;;;;;;5013919;28;20407;-69
2021/01/02 01:03:43;;;;;;;5.63;4.80;;;21.70;30.70;;;;;;5013938;28;20404;-68
2021/01/02 01:06:11;;;;;;;5.88;4.82;;;21.60;30.70;;;;;;4996155;28;20415;-68
2021/01/02 01:08:42;;;;;;;5.17;4.60;;;21.70;31.00;;;;;;4995840;28;20422;-69
2021/01/02 01:11:13;;;;;;;5.63;4.63;;;21.60;31.00;;;;;;5014048;28;20789;-69
2021/01/02 01:13:40;;;;;;;6.80;5.38;;;21.60;30.80;;;;;;5013914;28;20440;-69
2021/01/02 01:16:06;;;;;;;6.25;5.50;;;21.60;30.70;;;;;;5013776;28;20503;-69
2021/01/02 01:18:57;;;;;;;5.85;4.75;;;21.60;30.40;;;;;;5013230;28;20908;-69
2021/01/02 01:21:26;;;;;;;6.38;5.30;;;21.60;30.70;;;;;;4996029;28;20393;-69
2021/01/02 01:24:15;;;;;;;6.18;5.20;;;21.60;30.80;;;;;;4996175;28;20392;-69
2021/01/02 01:27:03;;;;;;;5.85;5.03;;;21.60;30.70;;;;;;5013478;28;20385;-69
2021/01/02 01:29:57;;;;;;;6.47;5.13;;;21.60;30.90;;;;;;4995899;28;20396;-69
2021/01/02 01:32:24;;;;;;;5.90;5.30;;;21.50;31.00;;;;;;4995636;28;20479;-69
2021/01/02 01:34:59;;;;;;;5.78;4.90;;;21.60;31.10;;;;;;4995876;28;20492;-69
2021/01/02 01:37:33;;;;;;;6.15;5.10;;;21.60;31.10;;;;;;4995810;28;20405;-69
2021/01/02 01:40:00;;;;;;;6.10;5.20;;;21.50;31.20;;;;;;5013441;28;20392;-69
2021/01/02 01:42:43;;;;;;;6.03;5.32;;;21.50;31.10;;;;;;4995317;28;20408;-69
2021/01/02 01:45:21;;;;;;;5.90;5.25;;;21.50;31.20;;;;;;4995566;28;20858;-69
2021/01/02 01:48:13;;;;;;;5.60;5.00;;;21.50;31.20;;;;;;5013266;28;20443;-69
2021/01/02 01:50:44;;;;;;;6.22;5.00;;;21.50;31.30;;;;;;5011634;28;20400;-69
2021/01/02 01:53:35;;;;;;;5.63;4.97;;;21.50;31.10;;;;;;4995499;28;20445;-69
2021/01/02 01:56:17;;;;;;;6.00;5.20;;;21.50;31.10;;;;;;5013326;28;21027;-69
2021/01/02 01:59:13;;;;;;;5.60;5.00;;;21.50;31.10;;;;;;5012886;28;20385;-69
2021/01/02 02:01:44;;;;;;;5.53;4.90;;;21.40;31.00;;;;;;4995424;28;20443;-69
2021/01/02 02:04:12;;;;;;;6.07;5.05;;;21.40;31.00;;;;;;4995308;28;20551;-69
2021/01/02 02:06:45;;;;;;;5.90;5.18;;;21.50;30.80;;;;;;5012466;28;21112;-68
2021/01/02 02:09:20;;;;;;;6.53;4.93;;;21.40;31.10;;;;;;5012868;28;20582;-68
2021/01/02 02:12:09;;;;;;;6.40;4.82;;;21.50;31.30;;;;;;5012499;28;20393;-69
2021/01/02 02:14:54;;;;;;;7.03;5.03;;;21.50;31.10;;;;;;4984151;28;20413;-69
2021/01/02 02:17:24;;;;;;;5.40;4.88;;;21.60;31.20;;;;;;4995152;28;20411;-69
2021/01/02 02:20:05;;;;;;;5.72;4.85;;;21.60;31.30;;;;;;5012811;28;20396;-69
2021/01/02 02:22:35;;;;;;;5.28;4.72;;;21.60;31.40;;;;;;4994342;28;21115;-69
2021/01/02 02:25:03;;;;;;;5.05;4.55;;;21.60;31.40;;;;;;4994876;28;20451;-69
2021/01/02 02:27:29;;;;;;;5.90;4.75;;;21.60;32.00;;;;;;4994916;28;20788;-68
2021/01/02 02:30:14;;;;;;;5.03;4.50;;;21.60;31.50;;;;;;4994887;28;20428;-69
2021/01/02 02:32:45;;;;;;;5.87;4.80;;;21.60;31.40;;;;;;4994117;28;20813;-69
2021/01/02 02:35:19;;;;;;;5.65;4.20;;;21.60;31.30;;;;;;5012316;28;20466;-69
2021/01/02 02:37:53;;;;;;;5.13;4.38;;;21.60;31.30;;;;;;5012294;28;20438;-69
2021/01/02 02:40:20;;;;;;;5.38;4.38;;;21.60;31.40;;;;;;4994685;28;20419;-69
2021/01/02 02:42:59;;;;;;;5.68;4.45;;;21.60;31.40;;;;;;5012047;28;20400;-69
2021/01/02 02:45:29;;;;;;;4.95;4.22;;;21.60;31.40;;;;;;4994297;28;20385;-72
2021/01/02 02:47:58;;;;;;;5.15;4.20;;;21.60;31.40;;;;;;4994412;28;20393;-69
2021/01/02 02:50:27;;;;;;;4.97;4.47;;;21.60;31.40;;;;;;4994219;28;20393;-69
2021/01/02 02:53:08;;;;;;;5.10;4.50;;;21.50;31.40;;;;;;5012047;28;20396;-69
2021/01/02 02:55:36;;;;;;;5.22;4.45;;;21.60;31.40;;;;;;4994320;28;20430;-69
2021/01/02 02:58:02;;;;;;;4.90;4.40;;;21.60;31.40;;;;;;4994352;28;20393;-69
2021/01/02 03:00:28;;;;;;;5.57;4.40;;;21.50;31.40;;;;;;4993495;28;20396;-68
2021/01/02 03:02:53;;;;;;;5.35;4.45;;;21.60;31.40;;;;;;5011749;28;20591;-69
2021/01/02 03:05:19;;;;;;;4.95;4.00;;;21.50;31.40;;;;;;4994074;28;20444;-69
2021/01/02 03:07:47;;;;;;;4.67;4.10;;;21.50;31.40;;;;;;5011952;28;20947;-69
2021/01/02 03:10:15;;;;;;;4.65;4.15;;;21.50;31.40;;;;;;5011789;28;20381;-69
2021/01/02 03:12:46;;;;;;;4.23;3.83;;;21.50;31.40;;;;;;5011421;28;20435;-69
2021/01/02 03:15:14;;;;;;;4.78;3.90;;;21.50;31.30;;;;;;5011621;28;20869;-69
2021/01/02 03:17:44;;;;;;;4.20;3.80;;;21.50;31.30;;;;;;5011692;28;20401;-69
2021/01/02 03:20:12;;;;;;;4.63;3.83;;;21.50;31.30;;;;;;4994122;28;20393;-69
2021/01/02 03:22:46;;;;;;;4.75;4.10;;;21.50;31.30;;;;;;5011191;28;20404;-69
2021/01/02 03:25:13;;;;;;;4.75;4.20;;;21.40;31.20;;;;;;5011623;28;20760;-69
2021/01/02 03:27:40;;;;;;;4.22;3.80;;;21.40;31.20;;;;;;5011754;28;20399;-69
2021/01/02 03:30:08;;;;;;;4.57;3.95;;;21.40;31.20;;;;;;5011660;28;20865;-69
2021/01/02 03:32:35;;;;;;;4.40;3.95;;;21.40;31.20;;;;;;5011061;28;20377;-69
2021/01/02 03:35:01;;;;;;;4.22;3.70;;;21.40;31.20;;;;;;5011536;28;20416;-69
2021/01/02 03:37:27;;;;;;;4.60;4.10;;;21.40;31.10;;;;;;5011484;28;20393;-69
2021/01/02 03:39:52;;;;;;;4.13;3.72;;;21.40;31.10;;;;;;5011482;28;20443;-68
2021/01/02 03:42:18;;;;;;;4.30;3.90;;;21.40;31.10;;;;;;5011449;28;20403;-69
2021/01/02 03:44:44;;;;;;;4.55;3.95;;;21.40;31.10;;;;;;5011017;28;20427;-69
2021/01/02 03:47:10;;;;;;;4.20;3.80;;;21.40;31.10;;;;;;5011070;28;20404;-68
2021/01/02 03:49:37;;;;;;;4.28;3.85;;;21.40;31.00;;;;;;5011363;28;20454;-69
2021/01/02 03:52:06;;;;;;;4.15;3.75;;;21.40;31.10;;;;;;5011465;28;20915;-69
2021/01/02 03:54:33;;;;;;;4.47;3.80;;;21.40;31.00;;;;;;5010919;28;20400;-69
2021/01/02 03:56:59;;;;;;;4.25;3.85;;;21.30;31.00;;;;;;5011459;28;20474;-69
2021/01/02 03:59:24;;;;;;;4.72;3.67;;;21.30;30.90;;;;;;5011329;28;20493;-69
2021/01/02 04:01:54;;;;;;;4.63;3.80;;;21.40;30.90;;;;;;5011152;28;20385;-69
2021/01/02 04:04:21;;;;;;;4.30;3.75;;;21.40;30.90;;;;;;5011046;28;20399;-69
2021/01/02 04:06:46;;;;;;;4.07;3.60;;;21.30;30.90;;;;;;4993180;28;20905;-69
2021/01/02 04:09:12;;;;;;;4.25;3.85;;;21.30;30.80;;;;;;4993566;28;20424;-69
2021/01/02 04:11:42;;;;;;;4.23;3.83;;;21.30;30.80;;;;;;5011319;28;20404;-69
2021/01/02 04:14:09;;;;;;;4.05;3.55;;;21.30;30.80;;;;;;4996515;28;20942;-69
2021/01/02 04:16:35;;;;;;;4.18;3.65;;;21.30;30.80;;;;;;5014340;28;20412;-69
2021/01/02 04:19:02;;;;;;;4.10;3.40;;;21.30;30.80;;;;;;5014905;28;20487;-69
2021/01/02 04:21:28;;;;;;;3.92;3.50;;;21.30;31.40;;;;;;4997276;28;20408;-69
2021/01/02 04:23:54;;;;;;;4.00;3.60;;;21.30;30.80;;;;;;5014896;28;20473;-69
2021/01/02 04:26:24;;;;;;;4.25;3.85;;;21.30;30.80;;;;;;4997042;28;20424;-69
2021/01/02 04:28:51;;;;;;;4.10;3.70;;;21.30;30.80;;;;;;5014490;28;20400;-69
2021/01/02 04:31:18;;;;;;;4.20;3.72;;;21.30;30.70;;;;;;5014607;28;20397;-68
2021/01/02 04:33:44;;;;;;;4.30;3.80;;;21.30;30.80;;;;;;4997028;28;20399;-69
2021/01/02 04:36:16;;;;;;;4.50;3.90;;;21.30;30.80;;;;;;5014152;28;20424;-68
2021/01/02 04:38:43;;;;;;;4.63;4.13;;;21.30;30.70;;;;;;5014175;28;20409;-69
2021/01/02 04:41:12;;;;;;;4.70;4.10;;;21.30;30.70;;;;;;5014631;28;20397;-69
2021/01/02 04:43:38;;;;;;;4.88;4.38;;;21.20;30.70;;;;;;5014402;28;20882;-69
2021/01/02 04:46:05;;;;;;;5.13;4.40;;;21.20;30.60;;;;;;5014455;28;20495;-69
2021/01/02 04:48:31;;;;;;;5.20;4.63;;;21.20;30.70;;;;;;5014072;28;20377;-69
2021/01/02 04:50:57;;;;;;;5.00;4.50;;;21.20;30.60;;;;;;5014223;28;20399;-69
2021/01/02 04:53:24;;;;;;;4.87;4.37;;;21.20;30.50;;;;;;5014256;28;20384;-69
2021/01/02 04:55:52;;;;;;;5.25;4.70;;;21.20;30.50;;;;;;5014159;28;20404;-69
2021/01/02 04:58:21;;;;;;;5.00;4.50;;;21.20;30.50;;;;;;5014013;28;20753;-69
2021/01/02 05:00:47;;;;;;;4.53;4.10;;;21.20;30.50;;;;;;5013691;28;20384;-69
2021/01/02 05:03:14;;;;;;;5.20;4.70;;;21.20;30.50;;;;;;5013905;28;20408;-69
2021/01/02 05:05:40;;;;;;;5.15;4.60;;;21.20;30.50;;;;;;5014118;28;20404;-69
2021/01/02 05:08:06;;;;;;;5.15;4.65;;;21.10;30.40;;;;;;5013955;28;20393;-69
2021/01/02 05:10:32;;;;;;;5.85;4.97;;;21.10;30.50;;;;;;5013764;28;20471;-68
2021/01/02 05:13:12;;;;;;;5.18;4.53;;;21.20;30.50;;;;;;5013655;28;21001;-68
2021/01/02 05:15:38;;;;;;;5.20;4.38;;;21.10;30.50;;;;;;5013812;28;20421;-68
2021/01/02 05:18:04;;;;;;;5.00;4.50;;;21.10;30.40;;;;;;5013871;28;20391;-69
2021/01/02 05:20:30;;;;;;;5.00;4.50;;;21.10;30.50;;;;;;5013503;28;20401;-69
2021/01/02 05:23:07;;;;;;;5.07;4.50;;;21.10;30.50;;;;;;5013476;28;20487;-69
2021/01/02 05:25:33;;;;;;;4.72;4.22;;;21.10;30.50;;;;;;5013456;28;20423;-68
2021/01/02 05:27:58;;;;;;;5.60;4.57;;;21.10;30.40;;;;;;5013676;28;20820;-69
2021/01/02 05:30:29;;;;;;;4.43;4.03;;;21.10;31.00;;;;;;4995935;28;20393;-69
2021/01/02 05:33:11;;;;;;;5.00;4.45;;;21.10;30.40;;;;;;5013363;28;20424;-69
2021/01/02 05:35:46;;;;;;;5.10;4.60;;;21.10;30.40;;;;;;4995852;28;20443;-69
2021/01/02 05:38:15;;;;;;;4.78;4.28;;;21.10;30.30;;;;;;5013461;28;20393;-69
2021/01/02 05:40:43;;;;;;;4.50;4.10;;;21.10;30.30;;;;;;5013064;28;20395;-69
2021/01/02 05:43:10;;;;;;;4.82;4.38;;;21.10;30.30;;;;;;4995711;28;20393;-69
2021/01/02 05:45:36;;;;;;;4.68;4.28;;;21.10;30.30;;;;;;5013291;28;20412;-69
2021/01/02 05:48:19;;;;;;;4.80;4.20;;;21.10;30.30;;;;;;5013295;28;20393;-69
2021/01/02 05:50:54;;;;;;;4.93;4.20;;;21.10;30.30;;;;;;5012838;28;20393;-69
2021/01/02 05:53:30;;;;;;;4.93;4.25;;;21.00;30.20;;;;;;5013090;28;20399;-69
2021/01/02 05:56:01;;;;;;;4.70;4.20;;;21.00;30.20;;;;;;5012984;28;20421;-69
2021/01/02 05:58:27;;;;;;;4.95;4.18;;;21.00;30.20;;;;;;4995454;28;20460;-69
2021/01/02 06:01:12;;;;;;;4.53;4.13;;;21.00;30.20;;;;;;4994964;28;20917;-69
2021/01/02 06:03:39;;;;;;;4.60;4.15;;;21.00;30.20;;;;;;5012791;28;20405;-68
2021/01/02 06:06:09;;;;;;;4.68;4.20;;;21.00;30.30;;;;;;5013033;28;20427;-68
2021/01/02 06:08:43;;;;;;;4.60;4.10;;;21.00;30.20;;;;;;4994989;28;20413;-69
2021/01/02 06:11:14;;;;;;;4.38;3.92;;;21.00;30.20;;;;;;4995308;28;20401;-69
2021/01/02 06:13:42;;;;;;;4.70;4.20;;;21.00;30.20;;;;;;5012838;28;20447;-69
2021/01/02 06:16:09;;;;;;;4.78;4.10;;;21.00;30.20;;;;;;4995019;28;20413;-69
2021/01/02 06:18:45;;;;;;;4.60;3.95;;;21.00;30.20;;;;;;5012467;28;20384;-68
2021/01/02 06:21:14;;;;;;;4.80;4.10;;;21.00;30.20;;;;;;5012670;28;20874;-69
2021/01/02 06:23:41;;;;;;;5.05;4.35;;;20.90;30.10;;;;;;4994979;28;20801;-69
2021/01/02 06:26:09;;;;;;;4.90;4.40;;;20.90;30.10;;;;;;4994914;28;20397;-68
2021/01/02 06:28:37;;;;;;;4.30;3.90;;;20.90;30.10;;;;;;4994807;28;20889;-69
2021/01/02 06:31:13;;;;;;;4.43;4.03;;;21.00;30.20;;;;;;5012589;28;20400;-69
2021/01/02 06:33:49;;;;;;;4.32;3.92;;;20.90;30.10;;;;;;5012498;28;20392;-68
2021/01/02 06:36:33;;;;;;;4.45;4.05;;;20.90;30.10;;;;;;5011479;28;20412;-68
2021/01/02 06:39:18;;;;;;;4.45;4.05;;;20.90;30.10;;;;;;4994462;28;20401;-68
2021/01/02 06:41:45;;;;;;;4.78;4.15;;;20.90;30.10;;;;;;5012319;28;20393;-68
2021/01/02 06:44:31;;;;;;;4.50;4.00;;;20.90;30.10;;;;;;5012116;28;20769;-68
2021/01/02 06:47:31;;;;;;;4.30;3.90;;;20.90;30.10;;;;;;5011907;28;20420;-68
2021/01/02 06:49:56;;;;;;;4.47;4.05;;;20.90;30.10;;;;;;5012061;28;20388;-68
2021/01/02 06:52:36;;;;;;;4.00;3.60;;;20.90;30.10;;;;;;5012142;28;20899;-68
2021/01/02 06:55:22;;;;;;;4.38;3.90;;;20.90;30.10;;;;;;5011744;28;20982;-68
2021/01/02 06:57:48;;;;;;;4.38;3.78;;;20.90;30.10;;;;;;4994396;28;20496;-68
2021/01/02 07:00:41;;;;;;;4.53;4.13;;;20.90;30.10;;;;;;5010688;28;20793;-69
2021/01/02 07:03:29;;;;;;;4.10;3.70;;;20.90;30.10;;;;;;4979054;28;20828;-69
2021/01/02 07:05:54;;;;;;;4.40;4.00;;;20.90;30.10;;;;;;4985047;28;20403;-69
2021/01/02 07:08:40;;;;;;;4.37;3.80;;;20.80;30.00;;;;;;4992261;28;20387;-68
2021/01/02 07:11:40;;;;;;;4.18;3.78;;;20.80;30.00;;;;;;4992741;28;20394;-69
2021/01/02 07:14:09;;;;;;;4.70;4.10;;;20.80;30.00;;;;;;4992157;28;20482;-69
2021/01/02 07:16:51;;;;;;;4.25;3.83;;;20.80;30.00;;;;;;4990628;28;20461;-69
2021/01/02 07:19:31;;;;;;;4.85;4.00;;;20.80;30.10;;;;;;4992392;28;20422;-69
2021/01/02 07:22:11;;;;;;;4.45;4.03;;;20.70;30.60;;;;;;4992229;28;20802;-68
2021/01/02 07:24:45;;;;;;;4.85;4.20;;;20.70;31.00;;;;;;4991872;28;20402;-68
2021/01/02 07:27:13;;;;;;;5.95;4.50;;;20.60;30.20;;;;;;4992247;28;20397;-68
2021/01/02 07:29:44;;;;;;;5.07;4.30;;;20.50;29.80;;;;;;4990596;28;20406;-68
2021/01/02 07:32:19;;;;;;;5.93;4.63;;;20.40;30.80;;;;;;4992018;28;20791;-68
2021/01/02 07:34:46;;;;;;;6.47;4.70;;;20.40;30.60;;;;;;4991587;28;20399;-68
2021/01/02 07:37:20;;;;;;;7.38;4.57;;;20.30;30.80;;;;;;4992023;28;20402;-67
2021/01/02 07:39:53;;;;;;;5.40;4.80;;;20.30;30.70;;;;;;4990896;28;20485;-68
2021/01/02 07:42:21;;;;;;;7.13;4.60;;;20.30;31.00;;;;;;4981715;28;20410;-67
2021/01/02 07:45:08;;;;;;;7.00;4.53;;;20.30;30.90;;;;;;5005663;28;20412;-68
2021/01/02 07:47:34;;;;;;;5.45;4.65;;;20.30;31.30;;;;;;5013477;28;20393;-68
2021/01/02 07:50:11;;;;;;;5.13;4.63;;;20.30;31.20;;;;;;5015533;28;20928;-68
2021/01/02 07:52:46;;;;;;;6.28;4.88;;;20.30;31.20;;;;;;4997926;28;20393;-67
2021/01/02 07:55:12;;;;;;;5.97;4.80;;;20.30;31.40;;;;;;5015386;28;20753;-67
2021/01/02 07:57:38;;;;;;;7.40;4.77;;;20.30;31.50;;;;;;4997690;28;20412;-68
2021/01/02 08:00:07;;;;;;;9.50;4.90;;;20.40;31.80;;;;;;4997761;28;20796;-67
2021/01/02 08:02:38;;;;;;;5.47;4.50;;;20.40;31.90;;;;;;4997625;28;20437;-67
2021/01/02 08:05:06;;;;;;;5.72;4.68;;;20.40;31.70;;;;;;5014989;28;20420;-67
2021/01/02 08:07:32;;;;;;;4.93;4.40;;;20.40;31.70;;;;;;5014995;28;20419;-67
2021/01/02 08:09:57;;;;;;;5.15;4.50;;;20.30;31.50;;;;;;5014987;28;20396;-68
2021/01/02 08:12:23;;;;;;;5.63;4.43;;;20.30;31.50;;;;;;4997303;28;20439;-67
2021/01/02 08:14:49;;;;;;;6.70;4.85;;;20.30;31.50;;;;;;5014293;28;20869;-68
2021/01/02 08:17:17;;;;;;;5.50;4.90;;;20.30;31.60;;;;;;4997164;28;20451;-68
2021/01/02 08:19:46;;;;;;;5.72;4.78;;;20.30;31.70;;;;;;4997367;28;20792;-67
2021/01/02 08:22:12;;;;;;;5.38;4.80;;;20.30;31.70;;;;;;5014794;28;20750;-68
2021/01/02 08:24:38;;;;;;;5.22;4.40;;;20.20;31.60;;;;;;5014544;28;20392;-68
2021/01/02 08:27:05;;;;;;;5.15;4.65;;;20.20;31.60;;;;;;5014404;28;20440;-68
2021/01/02 08:29:34;;;;;;;5.45;4.72;;;20.20;31.80;;;;;;5014835;28;20458;-68
2021/01/02 08:32:09;;;;;;;6.97;4.30;;;20.20;31.90;;;;;;5014717;28;20401;-68
2021/01/02 08:34:36;;;;;;;5.57;4.50;;;20.20;32.20;;;;;;4997040;28;20409;-68
2021/01/02 08:37:05;;;;;;;6.93;4.85;;;20.20;32.00;;;;;;5014275;28;20416;-68
2021/01/02 08:39:32;;;;;;;5.50;5.00;;;20.20;31.90;;;;;;5014588;28;20388;-68
2021/01/02 08:41:59;;;;;;;5.55;4.60;;;20.10;31.90;;;;;;5014493;28;20527;-68
2021/01/02 08:44:32;;;;;;;4.97;4.47;;;20.20;31.90;;;;;;4996723;28;20427;-68
2021/01/02 08:46:58;;;;;;;5.28;4.40;;;20.10;31.90;;;;;;5014136;28;20399;-68
2021/01/02 08:49:28;;;;;;;6.18;4.88;;;20.10;31.90;;;;;;4996656;28;20396;-67
2021/01/02 08:52:15;;;;;;;5.55;4.70;;;20.10;32.00;;;;;;5014337;28;20745;-67
2021/01/02 08:54:40;;;;;;;6.32;4.60;;;20.10;32.00;;;;;;4996390;28;20484;-68
2021/01/02 08:57:25;;;;;;;5.90;4.60;;;20.20;31.90;;;;;;5013770;28;20546;-68
2021/01/02 08:59:51;;;;;;;5.03;4.13;;;20.20;32.70;;;;;;5013477;28;20395;-68
2021/01/02 09:02:17;;;;;;;5.38;4.28;;;20.30;32.20;;;;;;4996547;28;20393;-68
2021/01/02 09:05:00;;;;;;;6.20;4.40;;;20.30;32.10;;;;;;4996031;28;20401;-68
2021/01/02 09:07:26;;;;;;;5.68;4.40;;;20.30;31.90;;;;;;4996419;28;20415;-68
2021/01/02 09:10:10;;;;;;;5.72;4.45;;;20.30;31.90;;;;;;5014167;28;20389;-68
2021/01/02 09:12:36;;;;;;;8.38;4.60;;;20.30;31.90;;;;;;4996310;28;20455;-68
2021/01/02 09:15:01;;;;;;;8.35;4.82;;;20.30;32.00;;;;;;4995718;28;20389;-67
2021/01/02 09:17:27;;;;;;;6.20;4.60;;;20.30;31.80;;;;;;4996346;28;20401;-69
2021/01/02 09:19:53;;;;;;;9.13;4.57;;;20.30;31.80;;;;;;5013949;28;20443;-68
2021/01/02 09:22:18;;;;;;;5.73;4.60;;;20.30;31.90;;;;;;4996150;28;20805;-68
2021/01/02 09:24:44;;;;;;;7.47;4.50;;;20.30;31.90;;;;;;4995822;28;20880;-68
2021/01/02 09:27:09;;;;;;;5.83;4.67;;;20.30;31.80;;;;;;5013457;28;20476;-68
2021/01/02 09:29:39;;;;;;;7.90;4.72;;;20.30;31.80;;;;;;5013392;28;20401;-69
2021/01/02 09:32:11;;;;;;;7.20;4.67;;;20.30;31.80;;;;;;4996102;28;20485;-68
2021/01/02 09:34:36;;;;;;;5.40;4.70;;;20.30;31.70;;;;;;5013594;28;20488;-68
2021/01/02 09:37:02;;;;;;;5.72;4.47;;;20.30;31.70;;;;;;5013009;28;20507;-68
2021/01/02 09:39:28;;;;;;;5.70;4.80;;;20.40;31.70;;;;;;5013419;28;20873;-68
2021/01/02 09:41:53;;;;;;;6.20;4.80;;;20.30;31.50;;;;;;4992346;28;20489;-69
2021/01/02 09:44:19;;;;;;;5.90;4.68;;;20.40;31.40;;;;;;4985856;28;20723;-68
2021/01/02 09:46:49;;;;;;;5.83;4.73;;;20.40;31.40;;;;;;4984277;28;20903;-68
2021/01/02 09:49:14;;;;;;;5.82;4.72;;;20.30;31.40;;;;;;5001247;28;20396;-68
2021/01/02 09:51:40;;;;;;;6.70;4.60;;;20.40;31.50;;;;;;4980674;28;20395;-68
2021/01/02 09:54:06;;;;;;;7.00;5.15;;;20.30;31.30;;;;;;4993606;28;20886;-68
2021/01/02 09:56:31;;;;;;;5.57;4.83;;;20.40;31.40;;;;;;4993460;28;20453;-68
2021/01/02 09:58:57;;;;;;;5.13;4.55;;;20.40;31.40;;;;;;4975500;28;20775;-68
2021/01/02 10:01:22;;;;;;;5.77;4.67;;;20.40;31.40;;;;;;4993387;28;20434;-68
2021/01/02 10:03:48;;;;;;;5.10;4.60;;;20.40;31.30;;;;;;4975647;28;20418;-68
2021/01/02 10:06:14;;;;;;;5.20;4.70;;;20.40;31.30;;;;;;4975729;28;20402;-68
2021/01/02 10:08:40;;;;;;;6.55;4.68;;;20.40;31.30;;;;;;4993313;28;20895;-68
2021/01/02 10:11:06;;;;;;;5.90;4.47;;;20.30;31.30;;;;;;4992046;28;20493;-68
2021/01/02 10:13:32;;;;;;;5.60;4.60;;;20.30;31.30;;;;;;4975667;28;20466;-68
2021/01/02 10:15:58;;;;;;;5.87;4.60;;;20.40;31.30;;;;;;4993054;28;20881;-68
2021/01/02 10:18:23;;;;;;;5.70;4.47;;;20.40;31.20;;;;;;4993229;28;20422;-68
2021/01/02 10:20:49;;;;;;;5.53;5.00;;;20.30;31.20;;;;;;4974879;28;20394;-68
2021/01/02 10:23:15;;;;;;;5.35;4.50;;;20.30;31.20;;;;;;4975569;28;20409;-68
2021/01/02 10:25:40;;;;;;;4.97;4.40;;;20.40;31.30;;;;;;4975631;28;20441;-68
2021/01/02 10:28:06;;;;;;;4.85;4.28;;;20.30;31.20;;;;;;4993010;28;20417;-68
2021/01/02 10:30:31;;;;;;;4.80;4.20;;;20.30;31.20;;;;;;4992895;28;20449;-68
2021/01/02 10:33:07;;;;;;;5.60;4.32;;;20.30;31.30;;;;;;5088731;27;20370;-69
2021/01/02 10:35:33;;;;;;;4.70;4.20;;;20.30;31.20;;;;;;5087431;28;20536;-69
2021/01/02 10:37:58;;;;;;;4.85;4.35;;;20.30;31.20;;;;;;5088899;28;20407;-69
2021/01/02 10:40:24;;;;;;;4.93;4.43;;;20.30;31.20;;;;;;5088739;28;20883;-69
2021/01/02 10:42:50;;;;;;;4.63;4.13;;;20.30;31.20;;;;;;5088331;28;20387;-69
2021/01/02 10:45:17;;;;;;;4.60;4.17;;;20.30;31.20;;;;;;5087304;28;20748;-69
2021/01/02 10:47:43;;;;;;;5.18;4.32;;;20.30;31.20;;;;;;5088808;28;20445;-69
2021/01/02 10:50:10;;;;;;;5.03;4.30;;;20.30;31.20;;;;;;5086887;28;20919;-69
2021/01/02 10:52:36;;;;;;;5.25;4.53;;;20.30;31.10;;;;;;5088568;28;20474;-68
2021/01/02 10:55:02;;;;;;;4.73;4.10;;;20.30;31.10;;;;;;5086548;28;20528;-68
2021/01/02 10:57:28;;;;;;;4.93;4.25;;;20.30;31.10;;;;;;5088370;28;20859;-69
2021/01/02 10:59:55;;;;;;;4.65;4.15;;;20.30;31.20;;;;;;5087185;28;20395;-68
2021/01/02 11:02:22;;;;;;;5.00;4.35;;;20.30;31.10;;;;;;5086592;28;20391;-68
2021/01/02 11:04:48;;;;;;;5.10;4.10;;;20.40;31.30;;;;;;5086605;28;20395;-69
2021/01/02 11:07:14;;;;;;;5.18;4.60;;;20.40;31.20;;;;;;5086629;28;20444;-69
2021/01/02 11:09:43;;;;;;;5.20;4.70;;;20.50;31.30;;;;;;5088004;28;20379;-69
2021/01/02 11:12:09;;;;;;;6.72;4.95;;;20.50;31.40;;;;;;5087899;28;20441;-70
2021/01/02 11:14:38;;;;;;;9.60;6.00;;;20.40;31.70;;;;;;5087806;28;20855;-69
2021/01/02 11:17:06;;;;;;;14.93;8.07;;;20.40;31.50;;;;;;5087619;28;20774;-69
2021/01/02 11:19:31;;;;;;;14.43;9.73;;;20.40;31.40;;;;;;5079848;28;20476;-68
2021/01/02 11:22:00;;;;;;;15.90;10.93;;;20.40;31.40;;;;;;5084385;28;20882;-68
2021/01/02 11:24:28;;;;;;;17.73;11.20;;;20.40;31.30;;;;;;5083908;28;20394;-69
2021/01/02 11:26:57;;;;;;;16.55;12.05;;;20.30;31.40;;;;;;5085515;28;20410;-69
2021/01/02 11:29:26;;;;;;;19.05;11.48;;;20.40;31.70;;;;;;5082568;28;20387;-68
2021/01/02 11:31:53;;;;;;;15.88;11.40;;;20.30;31.90;;;;;;5086427;28;20418;-68
2021/01/02 11:34:19;;;;;;;16.30;11.60;;;20.40;31.70;;;;;;5086557;28;20384;-68
2021/01/02 11:36:54;;;;;;;17.52;11.27;;;20.40;33.30;;;;;;5086539;28;20387;-68
2021/01/02 11:39:20;;;;;;;15.27;11.32;;;20.40;33.60;;;;;;5084981;28;20725;-68
2021/01/02 11:41:46;;;;;;;14.40;11.10;;;20.40;33.10;;;;;;5086555;28;20390;-68
2021/01/02 11:44:13;;;;;;;14.90;11.20;;;20.50;33.10;;;;;;5074373;28;20380;-69
2021/01/02 11:46:42;;;;;;;14.25;10.68;;;20.50;32.90;;;;;;5071327;28;20384;-68
2021/01/02 11:49:10;;;;;;;15.15;10.70;;;20.50;33.30;;;;;;5071131;28;20383;-68
2021/01/02 11:51:36;;;;;;;15.30;10.60;;;20.50;32.40;;;;;;5071752;28;20411;-68
2021/01/02 11:54:03;;;;;;;14.33;10.70;;;20.60;32.20;;;;;;5071536;28;20463;-68
2021/01/02 11:56:29;;;;;;;13.60;10.40;;;20.60;32.60;;;;;;5072607;28;20384;-69
2021/01/02 11:58:57;;;;;;;14.48;10.27;;;20.60;32.30;;;;;;5072315;28;20721;-68
2021/01/02 12:01:35;;;;;;;13.13;10.45;;;20.60;32.90;;;;;;5070070;28;20403;-68
2021/01/02 12:04:01;;;;;;;13.68;10.10;;;20.50;32.80;;;;;;5070317;28;20728;-68
2021/01/02 12:06:30;;;;;;;13.63;10.20;;;20.50;32.60;;;;;;5071037;28;20495;-68
2021/01/02 12:08:57;;;;;;;13.23;10.48;;;20.50;33.00;;;;;;5070823;28;20399;-68
2021/01/02 12:11:36;;;;;;;13.90;10.23;;;20.50;33.70;;;;;;5070792;28;20823;-69
2021/01/02 12:14:03;;;;;;;13.23;10.60;;;20.50;34.00;;;;;;5065173;28;20442;-68
2021/01/02 12:16:31;;;;;;;13.00;10.48;;;20.60;33.70;;;;;;5072154;28;20380;-68
2021/01/02 12:18:56;;;;;;;12.27;10.32;;;20.60;33.60;;;;;;5071817;28;20388;-68
2021/01/02 12:21:22;;;;;;;12.27;10.27;;;20.50;33.90;;;;;;5070104;28;20403;-68
2021/01/02 12:23:48;;;;;;;11.10;9.85;;;20.60;33.40;;;;;;5070623;28;20449;-68
2021/01/02 12:26:14;;;;;;;12.85;9.85;;;20.60;33.80;;;;;;5072075;28;20387;-68
2021/01/02 12:28:40;;;;;;;15.48;10.15;;;20.60;33.40;;;;;;5071973;28;21101;-69
2021/01/02 12:31:07;;;;;;;13.23;9.77;;;20.50;34.00;;;;;;5070708;28;20416;-68
2021/01/02 12:33:33;;;;;;;15.15;9.73;;;20.50;33.80;;;;;;5071959;28;20441;-69
2021/01/02 12:35:58;;;;;;;12.03;9.63;;;20.60;33.20;;;;;;5072232;28;20434;-69
2021/01/02 12:38:24;;;;;;;13.82;10.27;;;20.60;32.20;;;;;;5070290;28;20787;-68
2021/01/02 12:40:51;;;;;;;13.68;10.77;;;20.60;32.20;;;;;;5069491;28;20407;-69
2021/01/02 12:43:17;;;;;;;15.02;10.30;;;20.50;32.00;;;;;;5069836;28;20396;-68
2021/01/02 12:45:43;;;;;;;14.20;11.15;;;20.60;31.80;;;;;;5069986;28;20482;-68
2021/01/02 12:48:09;;;;;;;12.50;10.18;;;20.50;32.10;;;;;;5071777;28;20719;-68
2021/01/02 12:50:34;;;;;;;16.25;10.95;;;20.50;32.80;;;;;;5071895;28;20384;-68
2021/01/02 12:53:00;;;;;;;13.23;10.33;;;20.50;35.90;;;;;;5071073;28;20423;-68
2021/01/02 12:55:26;;;;;;;13.93;10.52;;;20.70;34.30;;;;;;5068719;28;20403;-68
2021/01/02 12:57:51;;;;;;;15.63;10.70;;;20.60;35.50;;;;;;5069939;28;20392;-68
2021/01/02 13:00:17;;;;;;;13.60;10.25;;;20.70;34.20;;;;;;5065809;28;20382;-68